Sandra Hugh — WDD9019 — position and weather

sailwx.info

Track history (hours):
 
Tides and Currents Weather Stations Pressure Air Temp Water Temp Dewpoint Dewpoint Depression Visibility Wind Speed Wind Dir Waves Ship Positions

Sandra Hugh

Owner: Sortwell Inc., DBA AmNav Maritime Services, Oakland, CA. More information available from US FCC via Universal Licensing System and Coast Guard Vessel Documentation Center.

Last reported at 2015-Sep-03 12:34 UTC. Time now 2015-Sep-03 12:59 UTC.
Position N 37°46' W 122°23'.

Length 24 m; draft 4.9 m.

Type: Tug. MMSI: 367305920.

Date/timePositionNaut miles runAvg speedWind from/ knotsBaromVisibWave heightAir tempDewpointWater temp
2015-Sep-03 12:34N 37°46' W 122°23'0 0.1
2015-Sep-03 11:33N 37°46' W 122°23'0 0.1
2015-Sep-03 10:33N 37°46' W 122°23'0 0.0
2015-Sep-03 09:34N 37°46' W 122°23'0 0.1
2015-Sep-03 08:34N 37°46' W 122°23'4 3.5
2015-Sep-03 07:33N 37°49' W 122°20'0 0.0
2015-Sep-03 06:33N 37°49' W 122°20'0 0.0
2015-Sep-03 05:34N 37°49' W 122°20'0 0.0
2015-Sep-03 04:34N 37°49' W 122°20'0 0.0
2015-Sep-03 03:33N 37°49' W 122°20'0 0.0
2015-Sep-03 02:34N 37°49' W 122°20'1 0.9
2015-Sep-03 01:33N 37°49' W 122°19'0 0.4
2015-Sep-03 00:33N 37°49' W 122°19'0 0.0
2015-Sep-02 23:33N 37°49' W 122°19'0 0.0
2015-Sep-02 22:34N 37°49' W 122°19'0 0.0
2015-Sep-02 21:33N 37°49' W 122°19'0 0.0
2015-Sep-02 20:33N 37°49' W 122°19'0 0.0
2015-Sep-02 19:34N 37°49' W 122°19'0 0.0
2015-Sep-02 18:34N 37°49' W 122°19'0 0.0
2015-Sep-02 17:34N 37°49' W 122°19'0 0.0
2015-Sep-02 16:34N 37°49' W 122°19'0 0.0
2015-Sep-02 15:34N 37°49' W 122°19'0 0.0
2015-Sep-02 14:34N 37°49' W 122°19'0 0.3
2015-Sep-02 13:33N 37°49' W 122°19'1 0.6
2015-Sep-02 12:34N 37°49' W 122°20'1 0.9
2015-Sep-02 11:34N 37°48' W 122°21'0 0.0
2015-Sep-02 10:34N 37°48' W 122°21'7 6.8
2015-Sep-02 09:33N 37°54' W 122°24'2 2.2
2015-Sep-02 08:33N 37°55' W 122°22'0 0.5
2015-Sep-02 07:33N 37°55' W 122°22'1 0.5
2015-Sep-02 06:34N 37°55' W 122°22'3 2.8
2015-Sep-02 05:33N 37°55' W 122°25'10 9.6
2015-Sep-02 04:34N 38°03' W 122°18'7 0.9
2015-Sep-01 20:33N 38°02' W 122°09'1010.0
2015-Sep-01 19:32N 38°02' W 122°22'5 4.9
2015-Sep-01 18:29N 38°03' W 122°16'2 1.8
2015-Sep-01 17:26N 38°04' W 122°13'6 0.9
2015-Sep-01 10:33N 38°03' W 122°06'1 0.7
2015-Sep-01 08:22N 38°02' W 122°08'1 0.1
2015-Aug-31 13:33N 38°02' W 122°09'4 3.5
2015-Aug-31 12:33N 38°03' W 122°13'0 0.0
2015-Aug-31 11:33N 38°03' W 122°13'4 4.3
2015-Aug-31 10:33N 38°03' W 122°18'9 9.1
2015-Aug-31 09:33N 37°56' W 122°26'8 8.5
2015-Aug-31 08:33N 37°49' W 122°19'0 0.3
2015-Aug-31 07:33N 37°49' W 122°19'0 0.0
2015-Aug-31 06:33N 37°49' W 122°19'0 0.0
2015-Aug-31 05:33N 37°49' W 122°19'0 0.0
2015-Aug-31 04:33N 37°49' W 122°19'0 0.0
2015-Aug-31 03:34N 37°49' W 122°19'0 0.0
2015-Aug-31 02:33N 37°49' W 122°19'0 0.0
2015-Aug-31 01:34N 37°49' W 122°19'0 0.0
2015-Aug-31 00:34N 37°49' W 122°19'0 0.4
2015-Aug-30 23:34N 37°49' W 122°19'2 2.4
2015-Aug-30 22:33N 37°48' W 122°21'1 1.1
2015-Aug-30 21:34N 37°47' W 122°23'1 0.5
2015-Aug-30 20:34N 37°47' W 122°23'4 4.2
2015-Aug-30 19:34N 37°49' W 122°19'0 0.0
2015-Aug-30 18:34N 37°49' W 122°19'0 0.0
2015-Aug-30 17:33N 37°49' W 122°19'0 0.0
2015-Aug-30 16:33N 37°49' W 122°19'0 0.4
2015-Aug-30 15:34N 37°49' W 122°19'2 1.7
2015-Aug-30 14:34N 37°48' W 122°21'0 0.5
2015-Aug-30 13:33N 37°48' W 122°21'0 0.4
2015-Aug-30 12:33N 37°49' W 122°21'1010.3
2015-Aug-30 11:34N 37°58' W 122°26'10 9.6
2015-Aug-30 10:34N 38°03' W 122°16'0 0.0
2015-Aug-30 09:32N 38°03' W 122°16'1 1.0
2015-Aug-30 08:33N 38°04' W 122°17'7 0.2
2015-Aug-28 16:31N 38°02' W 122°08'7 7.6
2015-Aug-28 15:33N 38°03' W 122°17'0 0.5
2015-Aug-28 14:33N 38°03' W 122°18'9 8.9
2015-Aug-28 13:33N 37°57' W 122°26'9 8.8
2015-Aug-28 12:34N 37°49' W 122°21'2 2.2
2015-Aug-28 11:33N 37°49' W 122°19'0 0.0
2015-Aug-28 10:33N 37°49' W 122°19'0 0.0
2015-Aug-28 09:33N 37°49' W 122°19'0 0.0
2015-Aug-28 08:33N 37°49' W 122°19'0 0.0
2015-Aug-28 07:34N 37°49' W 122°19'0 0.0
2015-Aug-28 06:34N 37°49' W 122°19'0 0.0
2015-Aug-28 05:33N 37°49' W 122°19'0 0.0
2015-Aug-28 04:34N 37°49' W 122°19'0 0.0
2015-Aug-28 03:33N 37°49' W 122°19'0 0.0
2015-Aug-28 02:33N 37°49' W 122°19'2 1.5
2015-Aug-28 01:34N 37°49' W 122°20'1 1.0
2015-Aug-28 00:33N 37°49' W 122°19'1 0.5
2015-Aug-27 23:34N 37°49' W 122°19'0 0.0
2015-Aug-27 22:33N 37°49' W 122°19'0 0.0
2015-Aug-27 21:33N 37°49' W 122°19'0 0.0
2015-Aug-27 20:34N 37°49' W 122°19'0 0.0
2015-Aug-27 19:33N 37°49' W 122°19'0 0.0
2015-Aug-27 18:33N 37°49' W 122°19'0 0.0
2015-Aug-27 17:33N 37°49' W 122°19'0 0.0
2015-Aug-27 16:34N 37°49' W 122°19'1 0.9
2015-Aug-27 15:33N 37°49' W 122°20'7 6.5
2015-Aug-27 14:34N 37°54' W 122°24'1 1.4
2015-Aug-27 13:34N 37°54' W 122°22'1 1.0
2015-Aug-27 12:33N 37°54' W 122°23'0 0.0
2015-Aug-27 11:34N 37°54' W 122°23'0 0.0
2015-Aug-27 10:33N 37°54' W 122°23'0 0.0
2015-Aug-27 09:33N 37°54' W 122°23'0 0.0
2015-Aug-27 08:33N 37°54' W 122°23'0 0.0
2015-Aug-27 07:33N 37°54' W 122°23'0 0.0
2015-Aug-27 06:33N 37°54' W 122°23'0 0.0
2015-Aug-27 05:33N 37°54' W 122°23'0 0.0
2015-Aug-27 04:33N 37°54' W 122°23'0 0.0
2015-Aug-27 03:33N 37°54' W 122°23'0 0.0
2015-Aug-27 02:33N 37°54' W 122°23'2 2.0
2015-Aug-27 01:34N 37°53' W 122°25'6 6.1
2015-Aug-27 00:34N 37°49' W 122°19'1 1.2
2015-Aug-26 23:34N 37°48' W 122°21'1 1.3
2015-Aug-26 22:33N 37°49' W 122°19'0 0.0
2015-Aug-26 21:33N 37°49' W 122°19'0 0.4
2015-Aug-26 20:33N 37°49' W 122°19'0 0.2
2015-Aug-26 19:33N 37°49' W 122°19'0 0.0
2015-Aug-26 18:34N 37°49' W 122°19'0 0.0
2015-Aug-26 17:33N 37°49' W 122°19'0 0.0
2015-Aug-26 16:34N 37°49' W 122°19'0 0.0
2015-Aug-26 15:33N 37°49' W 122°19'0 0.0
2015-Aug-26 14:33N 37°49' W 122°19'1 0.5
2015-Aug-26 13:33N 37°49' W 122°19'2 1.8
2015-Aug-26 12:34N 37°48' W 122°21'2 2.3
2015-Aug-26 11:34N 37°49' W 122°19'0 0.0
2015-Aug-26 10:34N 37°49' W 122°19'0 0.0
2015-Aug-26 09:34N 37°49' W 122°19'0 0.0
2015-Aug-26 08:33N 37°49' W 122°19'0 0.0
2015-Aug-26 07:34N 37°49' W 122°19'0 0.0
2015-Aug-26 06:33N 37°49' W 122°19'0 0.0
2015-Aug-26 05:33N 37°49' W 122°19'0 0.0
2015-Aug-26 04:33N 37°49' W 122°19'0 0.0
2015-Aug-26 03:33N 37°49' W 122°19'0 0.0
2015-Aug-26 02:33N 37°49' W 122°19'1 0.6
2015-Aug-26 01:34N 37°49' W 122°19'2 1.6
2015-Aug-26 00:34N 37°48' W 122°18'1 0.7
2015-Aug-25 23:34N 37°48' W 122°19'1 1.0
2015-Aug-25 22:34N 37°48' W 122°18'0 0.0
2015-Aug-25 21:33N 37°48' W 122°18'1 0.5
2015-Aug-25 20:34N 37°48' W 122°17'0 0.0
2015-Aug-25 19:34N 37°48' W 122°17'3 2.8
2015-Aug-25 18:33N 37°48' W 122°21'2 1.9
2015-Aug-25 17:33N 37°49' W 122°19'0 0.1
2015-Aug-25 16:34N 37°49' W 122°19'0 0.0
2015-Aug-25 15:34N 37°49' W 122°19'0 0.0
2015-Aug-25 14:33N 37°49' W 122°19'0 0.0
2015-Aug-25 13:33N 37°49' W 122°19'1 0.8
2015-Aug-25 12:33N 37°49' W 122°19'1 0.8
2015-Aug-25 11:33N 37°49' W 122°19'0 0.0
2015-Aug-25 10:33N 37°49' W 122°19'0 0.0
2015-Aug-25 09:33N 37°49' W 122°19'0 0.0
2015-Aug-25 08:33N 37°49' W 122°19'0 0.0
2015-Aug-25 07:33N 37°49' W 122°19'0 0.0
2015-Aug-25 06:33N 37°49' W 122°19'0 0.0
2015-Aug-25 05:33N 37°49' W 122°19'0 0.0
2015-Aug-25 04:33N 37°49' W 122°19'0 0.0
2015-Aug-25 03:33N 37°49' W 122°19'0 0.0
2015-Aug-25 02:34N 37°49' W 122°19'0 0.0
2015-Aug-25 01:33N 37°49' W 122°19'0 0.0
2015-Aug-25 00:33N 37°49' W 122°19'1 0.6
2015-Aug-24 23:34N 37°49' W 122°19'1 1.2
2015-Aug-24 22:33N 37°48' W 122°21'1 0.7
2015-Aug-24 21:33N 37°48' W 122°21'2 2.4
2015-Aug-24 20:34N 37°49' W 122°19'0 0.1
2015-Aug-24 19:33N 37°49' W 122°19'0 0.0
2015-Aug-24 18:33N 37°49' W 122°19'1 0.5
2015-Aug-24 17:33N 37°49' W 122°19'1 1.1
2015-Aug-24 16:34N 37°49' W 122°20'0 0.1
2015-Aug-24 15:33N 37°48' W 122°21'2 1.8
2015-Aug-24 14:34N 37°48' W 122°23'2 1.7
2015-Aug-24 13:34N 37°48' W 122°21'  
Track history (hours):
 
Tides and Currents Weather Stations Pressure Air Temp Water Temp Dewpoint Dewpoint Depression Visibility Wind Speed Wind Dir Waves Ship Positions

Sandra Hugh

Owner: Sortwell Inc., DBA AmNav Maritime Services, Oakland, CA. More information available from US FCC via Universal Licensing System and Coast Guard Vessel Documentation Center.

Last reported at 2015-Sep-03 12:34 UTC. Time now 2015-Sep-03 12:59 UTC.
Position N 37°46' W 122°23'.

Length 24 m; draft 4.9 m.

Type: Tug. MMSI: 367305920.

Date/timePositionNaut miles runAvg speedWind from/ knotsBaromVisibWave heightAir tempDewpointWater temp
2015-Sep-03 12:34N 37°46' W 122°23'0 0.1
2015-Sep-03 11:33N 37°46' W 122°23'0 0.1
2015-Sep-03 10:33N 37°46' W 122°23'0 0.0
2015-Sep-03 09:34N 37°46' W 122°23'0 0.1
2015-Sep-03 08:34N 37°46' W 122°23'4 3.5
2015-Sep-03 07:33N 37°49' W 122°20'0 0.0
2015-Sep-03 06:33N 37°49' W 122°20'0 0.0
2015-Sep-03 05:34N 37°49' W 122°20'0 0.0
2015-Sep-03 04:34N 37°49' W 122°20'0 0.0
2015-Sep-03 03:33N 37°49' W 122°20'0 0.0
2015-Sep-03 02:34N 37°49' W 122°20'1 0.9
2015-Sep-03 01:33N 37°49' W 122°19'0 0.4
2015-Sep-03 00:33N 37°49' W 122°19'0 0.0
2015-Sep-02 23:33N 37°49' W 122°19'0 0.0
2015-Sep-02 22:34N 37°49' W 122°19'0 0.0
2015-Sep-02 21:33N 37°49' W 122°19'0 0.0
2015-Sep-02 20:33N 37°49' W 122°19'0 0.0
2015-Sep-02 19:34N 37°49' W 122°19'0 0.0
2015-Sep-02 18:34N 37°49' W 122°19'0 0.0
2015-Sep-02 17:34N 37°49' W 122°19'0 0.0
2015-Sep-02 16:34N 37°49' W 122°19'0 0.0
2015-Sep-02 15:34N 37°49' W 122°19'0 0.0
2015-Sep-02 14:34N 37°49' W 122°19'0 0.3
2015-Sep-02 13:33N 37°49' W 122°19'1 0.6
2015-Sep-02 12:34N 37°49' W 122°20'1 0.9
2015-Sep-02 11:34N 37°48' W 122°21'0 0.0
2015-Sep-02 10:34N 37°48' W 122°21'7 6.8
2015-Sep-02 09:33N 37°54' W 122°24'2 2.2
2015-Sep-02 08:33N 37°55' W 122°22'0 0.5
2015-Sep-02 07:33N 37°55' W 122°22'1 0.5
2015-Sep-02 06:34N 37°55' W 122°22'3 2.8
2015-Sep-02 05:33N 37°55' W 122°25'10 9.6
2015-Sep-02 04:34N 38°03' W 122°18'7 0.9
2015-Sep-01 20:33N 38°02' W 122°09'1010.0
2015-Sep-01 19:32N 38°02' W 122°22'5 4.9
2015-Sep-01 18:29N 38°03' W 122°16'2 1.8
2015-Sep-01 17:26N 38°04' W 122°13'6 0.9
2015-Sep-01 10:33N 38°03' W 122°06'1 0.7
2015-Sep-01 08:22N 38°02' W 122°08'1 0.1
2015-Aug-31 13:33N 38°02' W 122°09'4 3.5
2015-Aug-31 12:33N 38°03' W 122°13'0 0.0
2015-Aug-31 11:33N 38°03' W 122°13'4 4.3
2015-Aug-31 10:33N 38°03' W 122°18'9 9.1
2015-Aug-31 09:33N 37°56' W 122°26'8 8.5
2015-Aug-31 08:33N 37°49' W 122°19'0 0.3
2015-Aug-31 07:33N 37°49' W 122°19'0 0.0
2015-Aug-31 06:33N 37°49' W 122°19'0 0.0
2015-Aug-31 05:33N 37°49' W 122°19'0 0.0
2015-Aug-31 04:33N 37°49' W 122°19'0 0.0
2015-Aug-31 03:34N 37°49' W 122°19'0 0.0
2015-Aug-31 02:33N 37°49' W 122°19'0 0.0
2015-Aug-31 01:34N 37°49' W 122°19'0 0.0
2015-Aug-31 00:34N 37°49' W 122°19'0 0.4
2015-Aug-30 23:34N 37°49' W 122°19'2 2.4
2015-Aug-30 22:33N 37°48' W 122°21'1 1.1
2015-Aug-30 21:34N 37°47' W 122°23'1 0.5
2015-Aug-30 20:34N 37°47' W 122°23'4 4.2
2015-Aug-30 19:34N 37°49' W 122°19'0 0.0
2015-Aug-30 18:34N 37°49' W 122°19'0 0.0
2015-Aug-30 17:33N 37°49' W 122°19'0 0.0
2015-Aug-30 16:33N 37°49' W 122°19'0 0.4
2015-Aug-30 15:34N 37°49' W 122°19'2 1.7
2015-Aug-30 14:34N 37°48' W 122°21'0 0.5
2015-Aug-30 13:33N 37°48' W 122°21'0 0.4
2015-Aug-30 12:33N 37°49' W 122°21'1010.3
2015-Aug-30 11:34N 37°58' W 122°26'10 9.6
2015-Aug-30 10:34N 38°03' W 122°16'0 0.0
2015-Aug-30 09:32N 38°03' W 122°16'1 1.0
2015-Aug-30 08:33N 38°04' W 122°17'7 0.2
2015-Aug-28 16:31N 38°02' W 122°08'7 7.6
2015-Aug-28 15:33N 38°03' W 122°17'0 0.5
2015-Aug-28 14:33N 38°03' W 122°18'9 8.9
2015-Aug-28 13:33N 37°57' W 122°26'9 8.8
2015-Aug-28 12:34N 37°49' W 122°21'2 2.2
2015-Aug-28 11:33N 37°49' W 122°19'0 0.0
2015-Aug-28 10:33N 37°49' W 122°19'0 0.0
2015-Aug-28 09:33N 37°49' W 122°19'0 0.0
2015-Aug-28 08:33N 37°49' W 122°19'0 0.0
2015-Aug-28 07:34N 37°49' W 122°19'0 0.0
2015-Aug-28 06:34N 37°49' W 122°19'0 0.0
2015-Aug-28 05:33N 37°49' W 122°19'0 0.0
2015-Aug-28 04:34N 37°49' W 122°19'0 0.0
2015-Aug-28 03:33N 37°49' W 122°19'0 0.0
2015-Aug-28 02:33N 37°49' W 122°19'2 1.5
2015-Aug-28 01:34N 37°49' W 122°20'1 1.0
2015-Aug-28 00:33N 37°49' W 122°19'1 0.5
2015-Aug-27 23:34N 37°49' W 122°19'0 0.0
2015-Aug-27 22:33N 37°49' W 122°19'0 0.0
2015-Aug-27 21:33N 37°49' W 122°19'0 0.0
2015-Aug-27 20:34N 37°49' W 122°19'0 0.0
2015-Aug-27 19:33N 37°49' W 122°19'0 0.0
2015-Aug-27 18:33N 37°49' W 122°19'0 0.0
2015-Aug-27 17:33N 37°49' W 122°19'0 0.0
2015-Aug-27 16:34N 37°49' W 122°19'1 0.9
2015-Aug-27 15:33N 37°49' W 122°20'7 6.5
2015-Aug-27 14:34N 37°54' W 122°24'1 1.4
2015-Aug-27 13:34N 37°54' W 122°22'1 1.0
2015-Aug-27 12:33N 37°54' W 122°23'0 0.0
2015-Aug-27 11:34N 37°54' W 122°23'0 0.0
2015-Aug-27 10:33N 37°54' W 122°23'0 0.0
2015-Aug-27 09:33N 37°54' W 122°23'0 0.0
2015-Aug-27 08:33N 37°54' W 122°23'0 0.0
2015-Aug-27 07:33N 37°54' W 122°23'0 0.0
2015-Aug-27 06:33N 37°54' W 122°23'0 0.0
2015-Aug-27 05:33N 37°54' W 122°23'0 0.0
2015-Aug-27 04:33N 37°54' W 122°23'0 0.0
2015-Aug-27 03:33N 37°54' W 122°23'0 0.0
2015-Aug-27 02:33N 37°54' W 122°23'2 2.0
2015-Aug-27 01:34N 37°53' W 122°25'6 6.1
2015-Aug-27 00:34N 37°49' W 122°19'1 1.2
2015-Aug-26 23:34N 37°48' W 122°21'1 1.3
2015-Aug-26 22:33N 37°49' W 122°19'0 0.0
2015-Aug-26 21:33N 37°49' W 122°19'0 0.4
2015-Aug-26 20:33N 37°49' W 122°19'0 0.2
2015-Aug-26 19:33N 37°49' W 122°19'0 0.0
2015-Aug-26 18:34N 37°49' W 122°19'0 0.0
2015-Aug-26 17:33N 37°49' W 122°19'0 0.0
2015-Aug-26 16:34N 37°49' W 122°19'0 0.0
2015-Aug-26 15:33N 37°49' W 122°19'0 0.0
2015-Aug-26 14:33N 37°49' W 122°19'1 0.5
2015-Aug-26 13:33N 37°49' W 122°19'2 1.8
2015-Aug-26 12:34N 37°48' W 122°21'2 2.3
2015-Aug-26 11:34N 37°49' W 122°19'0 0.0
2015-Aug-26 10:34N 37°49' W 122°19'0 0.0
2015-Aug-26 09:34N 37°49' W 122°19'0 0.0
2015-Aug-26 08:33N 37°49' W 122°19'0 0.0
2015-Aug-26 07:34N 37°49' W 122°19'0 0.0
2015-Aug-26 06:33N 37°49' W 122°19'0 0.0
2015-Aug-26 05:33N 37°49' W 122°19'0 0.0
2015-Aug-26 04:33N 37°49' W 122°19'0 0.0
2015-Aug-26 03:33N 37°49' W 122°19'0 0.0
2015-Aug-26 02:33N 37°49' W 122°19'1 0.6
2015-Aug-26 01:34N 37°49' W 122°19'2 1.6
2015-Aug-26 00:34N 37°48' W 122°18'1 0.7
2015-Aug-25 23:34N 37°48' W 122°19'1 1.0
2015-Aug-25 22:34N 37°48' W 122°18'0 0.0
2015-Aug-25 21:33N 37°48' W 122°18'1 0.5
2015-Aug-25 20:34N 37°48' W 122°17'0 0.0
2015-Aug-25 19:34N 37°48' W 122°17'3 2.8
2015-Aug-25 18:33N 37°48' W 122°21'2 1.9
2015-Aug-25 17:33N 37°49' W 122°19'0 0.1
2015-Aug-25 16:34N 37°49' W 122°19'0 0.0
2015-Aug-25 15:34N 37°49' W 122°19'0 0.0
2015-Aug-25 14:33N 37°49' W 122°19'0 0.0
2015-Aug-25 13:33N 37°49' W 122°19'1 0.8
2015-Aug-25 12:33N 37°49' W 122°19'1 0.8
2015-Aug-25 11:33N 37°49' W 122°19'0 0.0
2015-Aug-25 10:33N 37°49' W 122°19'0 0.0
2015-Aug-25 09:33N 37°49' W 122°19'0 0.0
2015-Aug-25 08:33N 37°49' W 122°19'0 0.0
2015-Aug-25 07:33N 37°49' W 122°19'0 0.0
2015-Aug-25 06:33N 37°49' W 122°19'0 0.0
2015-Aug-25 05:33N 37°49' W 122°19'0 0.0
2015-Aug-25 04:33N 37°49' W 122°19'0 0.0
2015-Aug-25 03:33N 37°49' W 122°19'0 0.0
2015-Aug-25 02:34N 37°49' W 122°19'0 0.0
2015-Aug-25 01:33N 37°49' W 122°19'0 0.0
2015-Aug-25 00:33N 37°49' W 122°19'1 0.6
2015-Aug-24 23:34N 37°49' W 122°19'1 1.2
2015-Aug-24 22:33N 37°48' W 122°21'1 0.7
2015-Aug-24 21:33N 37°48' W 122°21'2 2.4
2015-Aug-24 20:34N 37°49' W 122°19'0 0.1
2015-Aug-24 19:33N 37°49' W 122°19'0 0.0
2015-Aug-24 18:33N 37°49' W 122°19'1 0.5
2015-Aug-24 17:33N 37°49' W 122°19'1 1.1
2015-Aug-24 16:34N 37°49' W 122°20'0 0.1
2015-Aug-24 15:33N 37°48' W 122°21'2 1.8
2015-Aug-24 14:34N 37°48' W 122°23'2 1.7
2015-Aug-24 13:34N 37°48' W 122°21'  

Dump ship's entire track history